sensor_id;sensor_type;location;lat;lon;timestamp;temperature;humidity
17954;DHT22;9102;53.548;9.926;2023-10-08T00:02:04;11.10;99.90
17954;DHT22;9102;53.548;9.926;2023-10-08T00:04:32;11.10;99.90
17954;DHT22;9102;53.548;9.926;2023-10-08T00:07:04;11.10;99.90
17954;DHT22;9102;53.548;9.926;2023-10-08T00:09:33;11.10;99.90
17954;DHT22;9102;53.548;9.926;2023-10-08T00:12:03;11.10;99.90
17954;DHT22;9102;53.548;9.926;2023-10-08T00:14:30;11.10;99.90
17954;DHT22;9102;53.548;9.926;2023-10-08T00:16:57;11.10;99.90
17954;DHT22;9102;53.548;9.926;2023-10-08T00:19:25;11.10;99.90
17954;DHT22;9102;53.548;9.926;2023-10-08T00:21:58;11.20;99.90
17954;DHT22;9102;53.548;9.926;2023-10-08T00:24:31;11.10;99.90
17954;DHT22;9102;53.548;9.926;2023-10-08T00:26:59;11.20;99.90
17954;DHT22;9102;53.548;9.926;2023-10-08T00:29:26;11.10;99.90
17954;DHT22;9102;53.548;9.926;2023-10-08T00:31:54;11.10;99.90
17954;DHT22;9102;53.548;9.926;2023-10-08T00:34:22;11.10;99.90
17954;DHT22;9102;53.548;9.926;2023-10-08T00:36:51;11.20;99.90
17954;DHT22;9102;53.548;9.926;2023-10-08T00:39:17;11.10;99.90
17954;DHT22;9102;53.548;9.926;2023-10-08T00:41:50;11.20;99.90
17954;DHT22;9102;53.548;9.926;2023-10-08T00:44:20;11.10;99.90
17954;DHT22;9102;53.548;9.926;2023-10-08T00:46:49;11.20;99.90
17954;DHT22;9102;53.548;9.926;2023-10-08T00:49:22;11.20;99.90
17954;DHT22;9102;53.548;9.926;2023-10-08T00:52:04;11.20;99.90
17954;DHT22;9102;53.548;9.926;2023-10-08T00:54:52;11.20;99.90
17954;DHT22;9102;53.548;9.926;2023-10-08T00:57:35;11.20;99.90
17954;DHT22;9102;53.548;9.926;2023-10-08T01:00:03;11.20;99.90
17954;DHT22;9102;53.548;9.926;2023-10-08T01:02:40;11.20;99.90
17954;DHT22;9102;53.548;9.926;2023-10-08T01:05:12;11.20;99.90
17954;DHT22;9102;53.548;9.926;2023-10-08T01:07:42;11.20;99.90
17954;DHT22;9102;53.548;9.926;2023-10-08T01:10:13;11.20;99.90
17954;DHT22;9102;53.548;9.926;2023-10-08T01:12:47;11.20;99.90
17954;DHT22;9102;53.548;9.926;2023-10-08T01:15:29;11.20;99.90
17954;DHT22;9102;53.548;9.926;2023-10-08T01:18:01;11.20;99.90
17954;DHT22;9102;53.548;9.926;2023-10-08T01:20:30;11.10;99.90
17954;DHT22;9102;53.548;9.926;2023-10-08T01:23:03;11.20;99.90
17954;DHT22;9102;53.548;9.926;2023-10-08T01:25:35;11.20;99.90
17954;DHT22;9102;53.548;9.926;2023-10-08T01:28:03;11.20;99.90
17954;DHT22;9102;53.548;9.926;2023-10-08T01:30:35;11.20;99.90
17954;DHT22;9102;53.548;9.926;2023-10-08T01:33:07;11.20;99.90
17954;DHT22;9102;53.548;9.926;2023-10-08T01:35:37;11.20;99.90
17954;DHT22;9102;53.548;9.926;2023-10-08T01:38:05;11.20;99.90
17954;DHT22;9102;53.548;9.926;2023-10-08T01:40:39;11.20;99.90
17954;DHT22;9102;53.548;9.926;2023-10-08T01:43:06;11.20;99.90
17954;DHT22;9102;53.548;9.926;2023-10-08T01:45:36;11.20;99.90
17954;DHT22;9102;53.548;9.926;2023-10-08T01:48:06;11.20;99.90
17954;DHT22;9102;53.548;9.926;2023-10-08T01:50:35;11.20;99.90
17954;DHT22;9102;53.548;9.926;2023-10-08T01:53:02;11.20;99.90
17954;DHT22;9102;53.548;9.926;2023-10-08T01:55:32;11.20;99.90
17954;DHT22;9102;53.548;9.926;2023-10-08T01:58:13;11.20;99.90
17954;DHT22;9102;53.548;9.926;2023-10-08T02:00:42;11.20;99.90
17954;DHT22;9102;53.548;9.926;2023-10-08T02:03:11;11.20;99.90
17954;DHT22;9102;53.548;9.926;2023-10-08T02:05:39;11.30;99.90
17954;DHT22;9102;53.548;9.926;2023-10-08T02:08:08;11.20;99.90
17954;DHT22;9102;53.548;9.926;2023-10-08T02:10:37;11.20;99.90
17954;DHT22;9102;53.548;9.926;2023-10-08T02:13:04;11.20;99.90
17954;DHT22;9102;53.548;9.926;2023-10-08T02:15:31;11.20;99.90
17954;DHT22;9102;53.548;9.926;2023-10-08T02:17:58;11.20;99.90
17954;DHT22;9102;53.548;9.926;2023-10-08T02:20:28;11.20;99.90
17954;DHT22;9102;53.548;9.926;2023-10-08T02:22:55;11.20;99.90
17954;DHT22;9102;53.548;9.926;2023-10-08T02:25:22;11.20;99.90
17954;DHT22;9102;53.548;9.926;2023-10-08T02:27:50;11.20;99.90
17954;DHT22;9102;53.548;9.926;2023-10-08T02:30:17;11.20;99.90
17954;DHT22;9102;53.548;9.926;2023-10-08T02:32:44;11.20;99.90
17954;DHT22;9102;53.548;9.926;2023-10-08T02:35:12;11.20;99.90
17954;DHT22;9102;53.548;9.926;2023-10-08T02:37:39;11.20;99.90
17954;DHT22;9102;53.548;9.926;2023-10-08T02:40:07;11.10;99.90
17954;DHT22;9102;53.548;9.926;2023-10-08T02:42:43;11.20;99.90
17954;DHT22;9102;53.548;9.926;2023-10-08T02:45:12;11.20;99.90
17954;DHT22;9102;53.548;9.926;2023-10-08T02:47:41;11.20;99.90
17954;DHT22;9102;53.548;9.926;2023-10-08T02:50:10;11.20;99.90
17954;DHT22;9102;53.548;9.926;2023-10-08T02:52:42;11.20;99.90
17954;DHT22;9102;53.548;9.926;2023-10-08T02:55:10;11.10;99.90
17954;DHT22;9102;53.548;9.926;2023-10-08T02:57:49;11.10;99.90
17954;DHT22;9102;53.548;9.926;2023-10-08T03:00:19;11.10;99.90
17954;DHT22;9102;53.548;9.926;2023-10-08T03:02:46;11.10;99.90
17954;DHT22;9102;53.548;9.926;2023-10-08T03:05:13;11.00;99.90
17954;DHT22;9102;53.548;9.926;2023-10-08T03:07:43;11.00;99.90
17954;DHT22;9102;53.548;9.926;2023-10-08T03:10:10;11.00;99.90
17954;DHT22;9102;53.548;9.926;2023-10-08T03:12:44;11.00;99.90
17954;DHT22;9102;53.548;9.926;2023-10-08T03:15:12;11.00;99.90
17954;DHT22;9102;53.548;9.926;2023-10-08T03:17:42;11.00;99.90
17954;DHT22;9102;53.548;9.926;2023-10-08T03:20:16;11.00;99.90
17954;DHT22;9102;53.548;9.926;2023-10-08T03:23:04;11.00;99.90
17954;DHT22;9102;53.548;9.926;2023-10-08T03:25:38;11.00;99.90
17954;DHT22;9102;53.548;9.926;2023-10-08T03:28:07;11.00;99.90
17954;DHT22;9102;53.548;9.926;2023-10-08T03:30:38;11.10;99.90
17954;DHT22;9102;53.548;9.926;2023-10-08T03:33:16;11.00;99.90
17954;DHT22;9102;53.548;9.926;2023-10-08T03:35:49;11.00;99.90
17954;DHT22;9102;53.548;9.926;2023-10-08T03:38:18;11.00;99.90
17954;DHT22;9102;53.548;9.926;2023-10-08T03:40:54;11.00;99.90
17954;DHT22;9102;53.548;9.926;2023-10-08T03:43:23;11.00;99.90
17954;DHT22;9102;53.548;9.926;2023-10-08T03:45:59;11.00;99.90
17954;DHT22;9102;53.548;9.926;2023-10-08T03:48:34;10.90;99.90
17954;DHT22;9102;53.548;9.926;2023-10-08T03:51:04;10.90;99.90
17954;DHT22;9102;53.548;9.926;2023-10-08T03:53:37;10.90;99.90
17954;DHT22;9102;53.548;9.926;2023-10-08T03:56:24;10.80;99.90
17954;DHT22;9102;53.548;9.926;2023-10-08T03:58:51;10.90;99.90
17954;DHT22;9102;53.548;9.926;2023-10-08T04:01:20;10.90;99.90
17954;DHT22;9102;53.548;9.926;2023-10-08T04:03:51;10.90;99.90
17954;DHT22;9102;53.548;9.926;2023-10-08T04:06:26;10.90;99.90
17954;DHT22;9102;53.548;9.926;2023-10-08T04:09:03;10.90;99.90
17954;DHT22;9102;53.548;9.926;2023-10-08T04:11:50;10.90;99.90
17954;DHT22;9102;53.548;9.926;2023-10-08T04:14:19;10.90;99.90
17954;DHT22;9102;53.548;9.926;2023-10-08T04:16:46;10.90;99.90
17954;DHT22;9102;53.548;9.926;2023-10-08T04:19:18;10.90;99.90
17954;DHT22;9102;53.548;9.926;2023-10-08T04:21:46;10.80;99.90
17954;DHT22;9102;53.548;9.926;2023-10-08T04:24:21;10.80;99.90
17954;DHT22;9102;53.548;9.926;2023-10-08T04:26:54;10.80;99.90
17954;DHT22;9102;53.548;9.926;2023-10-08T04:29:23;10.80;99.90
17954;DHT22;9102;53.548;9.926;2023-10-08T04:31:50;10.80;99.90
17954;DHT22;9102;53.548;9.926;2023-10-08T04:34:28;10.90;99.90
17954;DHT22;9102;53.548;9.926;2023-10-08T04:36:55;10.90;99.90
17954;DHT22;9102;53.548;9.926;2023-10-08T04:39:26;10.80;99.90
17954;DHT22;9102;53.548;9.926;2023-10-08T04:41:57;10.90;99.90
17954;DHT22;9102;53.548;9.926;2023-10-08T04:44:31;10.80;99.90
17954;DHT22;9102;53.548;9.926;2023-10-08T04:46:58;10.90;99.90
17954;DHT22;9102;53.548;9.926;2023-10-08T04:49:31;10.90;99.90
17954;DHT22;9102;53.548;9.926;2023-10-08T04:52:01;10.90;99.90
17954;DHT22;9102;53.548;9.926;2023-10-08T04:54:34;10.90;99.90
17954;DHT22;9102;53.548;9.926;2023-10-08T04:57:06;10.90;99.90
17954;DHT22;9102;53.548;9.926;2023-10-08T04:59:33;10.90;99.90
17954;DHT22;9102;53.548;9.926;2023-10-08T05:02:00;11.00;99.90
17954;DHT22;9102;53.548;9.926;2023-10-08T05:04:47;10.90;99.90
17954;DHT22;9102;53.548;9.926;2023-10-08T05:07:31;10.90;99.90
17954;DHT22;9102;53.548;9.926;2023-10-08T05:10:26;10.80;99.90
17954;DHT22;9102;53.548;9.926;2023-10-08T05:13:10;10.80;99.90
17954;DHT22;9102;53.548;9.926;2023-10-08T05:15:47;10.90;99.90
17954;DHT22;9102;53.548;9.926;2023-10-08T05:18:29;10.90;99.90
17954;DHT22;9102;53.548;9.926;2023-10-08T05:21:25;10.80;99.90
17954;DHT22;9102;53.548;9.926;2023-10-08T05:23:53;10.80;99.90
17954;DHT22;9102;53.548;9.926;2023-10-08T05:26:37;10.80;99.90
17954;DHT22;9102;53.548;9.926;2023-10-08T05:29:08;10.80;99.90
17954;DHT22;9102;53.548;9.926;2023-10-08T05:31:49;10.80;99.90
17954;DHT22;9102;53.548;9.926;2023-10-08T05:34:36;10.70;99.90
17954;DHT22;9102;53.548;9.926;2023-10-08T05:37:09;10.70;99.90
17954;DHT22;9102;53.548;9.926;2023-10-08T05:39:59;10.70;99.90
17954;DHT22;9102;53.548;9.926;2023-10-08T05:42:44;10.80;99.90
17954;DHT22;9102;53.548;9.926;2023-10-08T05:45:15;10.80;99.90
17954;DHT22;9102;53.548;9.926;2023-10-08T05:47:55;10.80;99.90
17954;DHT22;9102;53.548;9.926;2023-10-08T05:50:39;10.80;99.90
17954;DHT22;9102;53.548;9.926;2023-10-08T05:53:09;10.80;99.90
17954;DHT22;9102;53.548;9.926;2023-10-08T05:55:55;10.80;99.90
17954;DHT22;9102;53.548;9.926;2023-10-08T05:58:41;10.70;99.90
17954;DHT22;9102;53.548;9.926;2023-10-08T06:01:25;10.70;99.90
17954;DHT22;9102;53.548;9.926;2023-10-08T06:04:05;10.70;99.90
17954;DHT22;9102;53.548;9.926;2023-10-08T06:06:46;10.60;99.90
17954;DHT22;9102;53.548;9.926;2023-10-08T06:09:24;10.60;99.90
17954;DHT22;9102;53.548;9.926;2023-10-08T06:12:01;10.60;99.90
17954;DHT22;9102;53.548;9.926;2023-10-08T06:14:38;10.60;99.90
17954;DHT22;9102;53.548;9.926;2023-10-08T06:17:27;10.60;99.90
17954;DHT22;9102;53.548;9.926;2023-10-08T06:20:12;10.70;99.90
17954;DHT22;9102;53.548;9.926;2023-10-08T06:22:42;10.70;99.90
17954;DHT22;9102;53.548;9.926;2023-10-08T06:25:11;10.70;99.90
17954;DHT22;9102;53.548;9.926;2023-10-08T06:27:48;10.70;99.90
17954;DHT22;9102;53.548;9.926;2023-10-08T06:30:19;10.60;99.90
17954;DHT22;9102;53.548;9.926;2023-10-08T06:32:46;10.60;99.90
17954;DHT22;9102;53.548;9.926;2023-10-08T06:35:16;10.70;99.90
17954;DHT22;9102;53.548;9.926;2023-10-08T06:37:44;10.70;99.90
17954;DHT22;9102;53.548;9.926;2023-10-08T06:40:16;10.70;99.90
17954;DHT22;9102;53.548;9.926;2023-10-08T06:42:57;10.70;99.90
17954;DHT22;9102;53.548;9.926;2023-10-08T06:45:29;10.70;99.90
17954;DHT22;9102;53.548;9.926;2023-10-08T06:47:58;10.70;99.90
17954;DHT22;9102;53.548;9.926;2023-10-08T06:50:31;10.80;99.90
17954;DHT22;9102;53.548;9.926;2023-10-08T06:53:01;10.80;99.90
17954;DHT22;9102;53.548;9.926;2023-10-08T06:55:33;10.90;99.90
17954;DHT22;9102;53.548;9.926;2023-10-08T06:58:01;10.90;99.90
17954;DHT22;9102;53.548;9.926;2023-10-08T07:00:31;10.90;99.90
17954;DHT22;9102;53.548;9.926;2023-10-08T07:03:08;10.90;99.90
17954;DHT22;9102;53.548;9.926;2023-10-08T07:05:37;10.90;99.90
17954;DHT22;9102;53.548;9.926;2023-10-08T07:08:07;11.00;99.90
17954;DHT22;9102;53.548;9.926;2023-10-08T07:10:36;11.00;99.90
17954;DHT22;9102;53.548;9.926;2023-10-08T07:13:04;11.00;99.90
17954;DHT22;9102;53.548;9.926;2023-10-08T07:15:33;11.10;99.90
17954;DHT22;9102;53.548;9.926;2023-10-08T07:17:59;11.10;99.90
17954;DHT22;9102;53.548;9.926;2023-10-08T07:20:36;11.10;99.90
17954;DHT22;9102;53.548;9.926;2023-10-08T07:23:05;11.20;99.90
17954;DHT22;9102;53.548;9.926;2023-10-08T07:25:46;11.20;99.90
17954;DHT22;9102;53.548;9.926;2023-10-08T07:28:18;11.30;99.90
17954;DHT22;9102;53.548;9.926;2023-10-08T07:30:45;11.30;99.90
17954;DHT22;9102;53.548;9.926;2023-10-08T07:33:15;11.40;99.90
17954;DHT22;9102;53.548;9.926;2023-10-08T07:35:45;11.40;99.90
17954;DHT22;9102;53.548;9.926;2023-10-08T07:38:20;11.50;99.90
17954;DHT22;9102;53.548;9.926;2023-10-08T07:40:49;11.50;99.90
17954;DHT22;9102;53.548;9.926;2023-10-08T07:43:18;11.60;99.90
17954;DHT22;9102;53.548;9.926;2023-10-08T07:45:46;11.70;99.90
17954;DHT22;9102;53.548;9.926;2023-10-08T07:48:13;11.70;99.90
17954;DHT22;9102;53.548;9.926;2023-10-08T07:50:42;11.70;99.90
17954;DHT22;9102;53.548;9.926;2023-10-08T07:53:11;11.70;99.90
17954;DHT22;9102;53.548;9.926;2023-10-08T07:55:44;11.70;99.90
17954;DHT22;9102;53.548;9.926;2023-10-08T07:58:14;11.80;99.90
17954;DHT22;9102;53.548;9.926;2023-10-08T08:00:42;11.90;99.90
17954;DHT22;9102;53.548;9.926;2023-10-08T08:03:18;12.00;99.90
17954;DHT22;9102;53.548;9.926;2023-10-08T08:05:45;12.00;99.90
17954;DHT22;9102;53.548;9.926;2023-10-08T08:08:13;12.00;99.90
17954;DHT22;9102;53.548;9.926;2023-10-08T08:10:43;12.00;99.90
17954;DHT22;9102;53.548;9.926;2023-10-08T08:13:17;12.00;99.90
17954;DHT22;9102;53.548;9.926;2023-10-08T08:15:48;12.00;99.90
17954;DHT22;9102;53.548;9.926;2023-10-08T08:18:17;12.10;99.90
17954;DHT22;9102;53.548;9.926;2023-10-08T08:20:48;12.20;99.90
17954;DHT22;9102;53.548;9.926;2023-10-08T08:23:17;12.20;99.90
17954;DHT22;9102;53.548;9.926;2023-10-08T08:25:44;12.20;99.90
17954;DHT22;9102;53.548;9.926;2023-10-08T08:28:38;12.20;99.90
17954;DHT22;9102;53.548;9.926;2023-10-08T08:31:06;12.20;99.90
17954;DHT22;9102;53.548;9.926;2023-10-08T08:33:42;12.30;99.90
17954;DHT22;9102;53.548;9.926;2023-10-08T08:36:26;12.30;99.90
17954;DHT22;9102;53.548;9.926;2023-10-08T08:38:53;12.40;99.90
17954;DHT22;9102;53.548;9.926;2023-10-08T08:41:20;12.40;99.90
17954;DHT22;9102;53.548;9.926;2023-10-08T08:43:53;12.50;99.90
17954;DHT22;9102;53.548;9.926;2023-10-08T08:46:29;12.50;99.90
17954;DHT22;9102;53.548;9.926;2023-10-08T08:49:02;12.50;99.90
17954;DHT22;9102;53.548;9.926;2023-10-08T08:51:29;12.50;99.90
17954;DHT22;9102;53.548;9.926;2023-10-08T08:53:57;12.50;99.90
17954;DHT22;9102;53.548;9.926;2023-10-08T08:56:26;12.50;99.90
17954;DHT22;9102;53.548;9.926;2023-10-08T08:58:55;12.50;99.90
17954;DHT22;9102;53.548;9.926;2023-10-08T09:01:24;12.60;99.90
17954;DHT22;9102;53.548;9.926;2023-10-08T09:03:51;12.60;99.90
17954;DHT22;9102;53.548;9.926;2023-10-08T09:06:18;12.70;99.90
17954;DHT22;9102;53.548;9.926;2023-10-08T09:08:47;12.80;99.90
17954;DHT22;9102;53.548;9.926;2023-10-08T09:11:16;12.80;99.90
17954;DHT22;9102;53.548;9.926;2023-10-08T09:13:43;12.80;99.90
17954;DHT22;9102;53.548;9.926;2023-10-08T09:16:14;12.90;99.90
17954;DHT22;9102;53.548;9.926;2023-10-08T09:18:42;13.00;99.90
17954;DHT22;9102;53.548;9.926;2023-10-08T09:21:11;13.00;99.90
17954;DHT22;9102;53.548;9.926;2023-10-08T09:23:42;13.00;99.90
17954;DHT22;9102;53.548;9.926;2023-10-08T09:26:13;13.00;99.90
17954;DHT22;9102;53.548;9.926;2023-10-08T09:28:44;13.10;99.90
17954;DHT22;9102;53.548;9.926;2023-10-08T09:31:13;13.30;99.90
17954;DHT22;9102;53.548;9.926;2023-10-08T09:33:41;13.50;99.90
17954;DHT22;9102;53.548;9.926;2023-10-08T09:36:09;13.40;99.90
17954;DHT22;9102;53.548;9.926;2023-10-08T09:38:36;13.50;99.90
17954;DHT22;9102;53.548;9.926;2023-10-08T09:41:03;13.60;99.90
17954;DHT22;9102;53.548;9.926;2023-10-08T09:43:33;13.60;99.90
17954;DHT22;9102;53.548;9.926;2023-10-08T09:46:08;13.60;99.90
17954;DHT22;9102;53.548;9.926;2023-10-08T09:48:38;13.70;99.90
17954;DHT22;9102;53.548;9.926;2023-10-08T09:51:10;13.70;99.90
17954;DHT22;9102;53.548;9.926;2023-10-08T09:53:47;13.70;99.90
17954;DHT22;9102;53.548;9.926;2023-10-08T09:56:15;13.70;99.90
17954;DHT22;9102;53.548;9.926;2023-10-08T09:58:44;13.80;99.90
17954;DHT22;9102;53.548;9.926;2023-10-08T10:01:12;13.90;99.90
17954;DHT22;9102;53.548;9.926;2023-10-08T10:03:40;13.80;99.90
17954;DHT22;9102;53.548;9.926;2023-10-08T10:06:12;13.70;99.90
17954;DHT22;9102;53.548;9.926;2023-10-08T10:08:41;13.80;99.90
17954;DHT22;9102;53.548;9.926;2023-10-08T10:11:08;13.90;99.90
17954;DHT22;9102;53.548;9.926;2023-10-08T10:13:39;13.90;99.90
17954;DHT22;9102;53.548;9.926;2023-10-08T10:16:06;14.00;99.90
17954;DHT22;9102;53.548;9.926;2023-10-08T10:18:34;14.00;99.90
17954;DHT22;9102;53.548;9.926;2023-10-08T10:21:26;14.10;99.90
17954;DHT22;9102;53.548;9.926;2023-10-08T10:23:54;14.10;99.90
17954;DHT22;9102;53.548;9.926;2023-10-08T10:26:24;14.20;99.90
17954;DHT22;9102;53.548;9.926;2023-10-08T10:29:20;14.30;99.90
17954;DHT22;9102;53.548;9.926;2023-10-08T10:31:48;14.50;99.90
17954;DHT22;9102;53.548;9.926;2023-10-08T10:34:20;14.60;99.90
17954;DHT22;9102;53.548;9.926;2023-10-08T10:36:51;14.60;99.90
17954;DHT22;9102;53.548;9.926;2023-10-08T10:39:25;14.50;99.90
17954;DHT22;9102;53.548;9.926;2023-10-08T10:41:59;14.50;99.90
17954;DHT22;9102;53.548;9.926;2023-10-08T10:44:29;14.60;99.90
17954;DHT22;9102;53.548;9.926;2023-10-08T10:46:57;14.70;99.90
17954;DHT22;9102;53.548;9.926;2023-10-08T10:49:41;14.70;99.90
17954;DHT22;9102;53.548;9.926;2023-10-08T10:52:16;14.70;99.90
17954;DHT22;9102;53.548;9.926;2023-10-08T10:54:52;14.90;99.90
17954;DHT22;9102;53.548;9.926;2023-10-08T10:57:25;15.00;99.90
17954;DHT22;9102;53.548;9.926;2023-10-08T11:00:02;14.90;99.90
17954;DHT22;9102;53.548;9.926;2023-10-08T11:02:44;14.80;99.90
17954;DHT22;9102;53.548;9.926;2023-10-08T11:05:14;14.70;99.90
17954;DHT22;9102;53.548;9.926;2023-10-08T11:07:47;14.60;99.90
17954;DHT22;9102;53.548;9.926;2023-10-08T11:10:15;14.60;99.90
17954;DHT22;9102;53.548;9.926;2023-10-08T11:12:42;14.60;99.90
17954;DHT22;9102;53.548;9.926;2023-10-08T11:15:12;14.80;99.90
17954;DHT22;9102;53.548;9.926;2023-10-08T11:17:41;14.90;99.90
17954;DHT22;9102;53.548;9.926;2023-10-08T11:20:25;15.10;99.90
17954;DHT22;9102;53.548;9.926;2023-10-08T11:22:54;15.10;99.90
17954;DHT22;9102;53.548;9.926;2023-10-08T11:25:21;15.20;99.90
17954;DHT22;9102;53.548;9.926;2023-10-08T11:27:53;15.20;99.90
17954;DHT22;9102;53.548;9.926;2023-10-08T11:30:27;15.10;99.90
17954;DHT22;9102;53.548;9.926;2023-10-08T11:32:56;15.20;99.90
17954;DHT22;9102;53.548;9.926;2023-10-08T11:35:25;15.30;99.90
17954;DHT22;9102;53.548;9.926;2023-10-08T11:37:59;15.40;99.90
17954;DHT22;9102;53.548;9.926;2023-10-08T11:40:28;15.60;99.90
17954;DHT22;9102;53.548;9.926;2023-10-08T11:42:55;15.70;99.90
17954;DHT22;9102;53.548;9.926;2023-10-08T11:45:24;15.80;99.90
17954;DHT22;9102;53.548;9.926;2023-10-08T11:47:52;15.80;99.90
17954;DHT22;9102;53.548;9.926;2023-10-08T11:50:25;15.90;99.90
17954;DHT22;9102;53.548;9.926;2023-10-08T11:53:05;15.60;99.90
17954;DHT22;9102;53.548;9.926;2023-10-08T11:55:32;15.50;99.90
17954;DHT22;9102;53.548;9.926;2023-10-08T11:58:01;15.60;99.90
17954;DHT22;9102;53.548;9.926;2023-10-08T12:00:36;15.80;99.90
17954;DHT22;9102;53.548;9.926;2023-10-08T12:03:10;15.90;99.90
17954;DHT22;9102;53.548;9.926;2023-10-08T12:05:38;16.10;99.90
17954;DHT22;9102;53.548;9.926;2023-10-08T12:08:14;16.00;99.90
17954;DHT22;9102;53.548;9.926;2023-10-08T12:10:42;16.20;99.70
17954;DHT22;9102;53.548;9.926;2023-10-08T12:13:11;16.50;98.40
17954;DHT22;9102;53.548;9.926;2023-10-08T12:15:38;16.60;97.30
17954;DHT22;9102;53.548;9.926;2023-10-08T12:18:07;16.60;95.70
17954;DHT22;9102;53.548;9.926;2023-10-08T12:20:52;16.40;96.70
17954;DHT22;9102;53.548;9.926;2023-10-08T12:23:20;16.50;97.90
17954;DHT22;9102;53.548;9.926;2023-10-08T12:25:51;16.40;97.60
17954;DHT22;9102;53.548;9.926;2023-10-08T12:28:21;16.30;97.30
17954;DHT22;9102;53.548;9.926;2023-10-08T12:30:49;16.00;97.00
17954;DHT22;9102;53.548;9.926;2023-10-08T12:33:18;15.90;99.90
17954;DHT22;9102;53.548;9.926;2023-10-08T12:35:45;15.70;99.90
17954;DHT22;9102;53.548;9.926;2023-10-08T12:38:12;15.40;99.90
17954;DHT22;9102;53.548;9.926;2023-10-08T12:40:41;15.20;99.90
17954;DHT22;9102;53.548;9.926;2023-10-08T12:43:18;15.10;99.90
17954;DHT22;9102;53.548;9.926;2023-10-08T12:45:46;15.10;99.90
17954;DHT22;9102;53.548;9.926;2023-10-08T12:48:19;15.20;99.90
17954;DHT22;9102;53.548;9.926;2023-10-08T12:50:46;15.30;99.90
17954;DHT22;9102;53.548;9.926;2023-10-08T12:53:19;15.30;99.90
17954;DHT22;9102;53.548;9.926;2023-10-08T12:55:51;15.40;99.90
17954;DHT22;9102;53.548;9.926;2023-10-08T12:58:21;15.50;99.90
17954;DHT22;9102;53.548;9.926;2023-10-08T13:00:52;15.70;99.90
17954;DHT22;9102;53.548;9.926;2023-10-08T13:03:23;15.70;99.90
17954;DHT22;9102;53.548;9.926;2023-10-08T13:05:50;15.80;99.90
17954;DHT22;9102;53.548;9.926;2023-10-08T13:08:19;15.70;99.90
17954;DHT22;9102;53.548;9.926;2023-10-08T13:10:46;15.70;99.90
17954;DHT22;9102;53.548;9.926;2023-10-08T13:13:14;15.80;99.90
17954;DHT22;9102;53.548;9.926;2023-10-08T13:15:41;15.80;99.90
17954;DHT22;9102;53.548;9.926;2023-10-08T13:18:08;15.70;99.90
17954;DHT22;9102;53.548;9.926;2023-10-08T13:20:35;15.90;99.90
17954;DHT22;9102;53.548;9.926;2023-10-08T13:23:06;15.90;99.90
17954;DHT22;9102;53.548;9.926;2023-10-08T13:25:32;16.00;99.90
17954;DHT22;9102;53.548;9.926;2023-10-08T13:28:05;16.10;99.90
17954;DHT22;9102;53.548;9.926;2023-10-08T13:30:34;16.10;99.90
17954;DHT22;9102;53.548;9.926;2023-10-08T13:33:01;15.90;99.90
17954;DHT22;9102;53.548;9.926;2023-10-08T13:35:27;15.90;99.90
17954;DHT22;9102;53.548;9.926;2023-10-08T13:37:55;15.90;99.90
17954;DHT22;9102;53.548;9.926;2023-10-08T13:40:22;15.80;99.90
17954;DHT22;9102;53.548;9.926;2023-10-08T13:42:58;15.60;99.90
17954;DHT22;9102;53.548;9.926;2023-10-08T13:45:25;15.60;99.90
17954;DHT22;9102;53.548;9.926;2023-10-08T13:47:56;15.60;99.90
17954;DHT22;9102;53.548;9.926;2023-10-08T13:50:25;15.60;99.90
17954;DHT22;9102;53.548;9.926;2023-10-08T13:52:55;15.50;99.90
17954;DHT22;9102;53.548;9.926;2023-10-08T13:55:22;15.50;99.90
17954;DHT22;9102;53.548;9.926;2023-10-08T13:57:50;15.50;99.90
17954;DHT22;9102;53.548;9.926;2023-10-08T14:00:17;15.60;99.90
17954;DHT22;9102;53.548;9.926;2023-10-08T14:02:51;15.70;99.90
17954;DHT22;9102;53.548;9.926;2023-10-08T14:05:20;15.90;99.90
17954;DHT22;9102;53.548;9.926;2023-10-08T14:07:49;15.90;99.90
17954;DHT22;9102;53.548;9.926;2023-10-08T14:10:18;15.90;99.90
17954;DHT22;9102;53.548;9.926;2023-10-08T14:12:46;15.90;99.90
17954;DHT22;9102;53.548;9.926;2023-10-08T14:15:15;15.90;99.90
17954;DHT22;9102;53.548;9.926;2023-10-08T14:17:43;15.90;99.90
17954;DHT22;9102;53.548;9.926;2023-10-08T14:20:14;15.80;99.90
17954;DHT22;9102;53.548;9.926;2023-10-08T14:22:48;15.60;99.90
17954;DHT22;9102;53.548;9.926;2023-10-08T14:25:25;15.60;99.90
17954;DHT22;9102;53.548;9.926;2023-10-08T14:27:53;15.40;99.90
17954;DHT22;9102;53.548;9.926;2023-10-08T14:30:30;15.40;99.90
17954;DHT22;9102;53.548;9.926;2023-10-08T14:32:58;15.40;99.90
17954;DHT22;9102;53.548;9.926;2023-10-08T14:35:26;15.40;99.90
17954;DHT22;9102;53.548;9.926;2023-10-08T14:38:11;15.30;99.90
17954;DHT22;9102;53.548;9.926;2023-10-08T14:40:56;15.10;99.90
17954;DHT22;9102;53.548;9.926;2023-10-08T14:43:40;15.20;99.90
17954;DHT22;9102;53.548;9.926;2023-10-08T14:46:08;15.10;99.90
17954;DHT22;9102;53.548;9.926;2023-10-08T14:48:37;15.10;99.90
17954;DHT22;9102;53.548;9.926;2023-10-08T14:51:06;15.10;99.90
17954;DHT22;9102;53.548;9.926;2023-10-08T14:53:34;15.10;99.90
17954;DHT22;9102;53.548;9.926;2023-10-08T14:56:04;15.10;99.90
17954;DHT22;9102;53.548;9.926;2023-10-08T14:58:31;15.00;99.90
17954;DHT22;9102;53.548;9.926;2023-10-08T15:00:59;14.90;99.90
17954;DHT22;9102;53.548;9.926;2023-10-08T15:03:26;14.90;99.90
17954;DHT22;9102;53.548;9.926;2023-10-08T15:05:54;14.80;99.90
17954;DHT22;9102;53.548;9.926;2023-10-08T15:08:22;14.80;99.90
17954;DHT22;9102;53.548;9.926;2023-10-08T15:10:50;14.60;99.90
17954;DHT22;9102;53.548;9.926;2023-10-08T15:13:19;14.70;99.90
17954;DHT22;9102;53.548;9.926;2023-10-08T15:15:46;14.70;99.90
17954;DHT22;9102;53.548;9.926;2023-10-08T15:18:13;14.60;99.90
17954;DHT22;9102;53.548;9.926;2023-10-08T15:20:40;14.60;99.90
17954;DHT22;9102;53.548;9.926;2023-10-08T15:23:08;14.60;99.90
17954;DHT22;9102;53.548;9.926;2023-10-08T15:25:37;14.70;99.90
17954;DHT22;9102;53.548;9.926;2023-10-08T15:28:06;14.60;99.90
17954;DHT22;9102;53.548;9.926;2023-10-08T15:30:34;14.50;99.90
17954;DHT22;9102;53.548;9.926;2023-10-08T15:33:01;14.50;99.90
17954;DHT22;9102;53.548;9.926;2023-10-08T15:35:28;14.50;99.90
17954;DHT22;9102;53.548;9.926;2023-10-08T15:37:55;14.50;99.90
17954;DHT22;9102;53.548;9.926;2023-10-08T15:40:22;14.50;99.90
17954;DHT22;9102;53.548;9.926;2023-10-08T15:42:49;14.50;99.90
17954;DHT22;9102;53.548;9.926;2023-10-08T15:45:18;14.40;99.90
17954;DHT22;9102;53.548;9.926;2023-10-08T15:47:45;14.40;99.90
17954;DHT22;9102;53.548;9.926;2023-10-08T15:50:12;14.40;99.90
17954;DHT22;9102;53.548;9.926;2023-10-08T15:52:39;14.40;99.90
17954;DHT22;9102;53.548;9.926;2023-10-08T15:55:07;14.40;99.90
17954;DHT22;9102;53.548;9.926;2023-10-08T15:57:36;14.30;99.90
17954;DHT22;9102;53.548;9.926;2023-10-08T16:00:04;14.30;99.90
17954;DHT22;9102;53.548;9.926;2023-10-08T16:02:32;14.30;99.90
17954;DHT22;9102;53.548;9.926;2023-10-08T16:04:59;14.30;99.90
17954;DHT22;9102;53.548;9.926;2023-10-08T16:07:28;14.20;99.90
17954;DHT22;9102;53.548;9.926;2023-10-08T16:09:55;14.20;99.90
17954;DHT22;9102;53.548;9.926;2023-10-08T16:12:22;14.20;99.90